1935 Tropical Low NOT_NAMED (1935084S14123)


IBTrACS version v04r00. Visit IBTrACS website for data access.
Please direct all questions to the IBTrACS Q and A forum

Storm track - Intensity - Wind Radii - Intensity Data - Source Data - All data

Summary Information

Storm ID 1935084S14123
Start Mar 24 23Z
Landfall Mar 27 15Z
Max Intensity 957 mb (Mar 27 15Z)
End Mar 28 23Z
ATCF IDs
Track status Best track data.

Storm track plot

Map of storm track

Intensity plots

Map of storm track

Radial wind information

No radial wind information for this storm


Position and Intensity Table

BASIN ISO_TIME_________ NATURE LAT LON WMO PRES BOM PRES
degrees north degrees east mb mb
SI 1935-03-24 23:00:00 NR -13.70 123.40
SI 1935-03-25 00:00:00 NR -13.72 123.38
SI 03:00:00 NR -13.79 123.32
SI 06:00:00 NR -13.85 123.27
SI 09:00:00 NR -13.89 123.22
SI 11:00:00 NR -13.90 123.20
SI 12:00:00 NR -13.90 123.19
SI 15:00:00 NR -13.89 123.16
SI 18:00:00 NR -13.89 123.12
SI 21:00:00 NR -13.93 123.06
SI 23:00:00 NR -14.00 123.00
SI 1935-03-26 00:00:00 NR -14.05 122.95
SI 01:00:00 NR -14.09 123.12
SI 03:00:00 NR -14.19 123.17
SI 06:00:00 NR -14.36 123.12
SI 09:00:00 NR -14.52 123.05
SI 11:00:00 NR -14.66 122.95
SI 12:00:00 NR -14.72 122.90
SI 15:00:00 NR -14.93 122.75
SI 18:00:00 NR -15.15 122.60
SI 21:00:00 NR -15.39 122.48
SI 23:00:00 NR -15.56 122.42
SI 1935-03-27 00:00:00 NR -15.65 122.40
SI 01:00:00 NR -15.74 122.38
SI 03:00:00 NR -15.93 122.36
SI 06:00:00 NR -16.22 122.37
SI 08:00:00 NR -16.41 122.42
SI 09:00:00 NR -16.52 122.46
SI 11:00:00 NR -16.72 122.58
SI 12:00:00 NR -16.82 122.64
SI 15:00:00 NR -17.07 122.85 957 957
SI 18:00:00 NR -17.26 123.09
SI 21:00:00 NR -17.38 123.34
SI 23:00:00 NR -17.43 123.52
SI 1935-03-28 00:00:00 NR -17.43 123.61
SI 01:00:00 NR -17.42 123.70
SI 03:00:00 NR -17.40 123.84
SI 06:00:00 NR -17.47 124.01
SI 09:00:00 NR -17.55 124.18
SI 11:00:00 NR -17.60 124.30
SI 12:00:00 NR -17.63 124.36
SI 15:00:00 NR -17.70 124.55
SI 18:00:00 NR -17.78 124.75
SI 21:00:00 NR -17.85 124.96
SI 23:00:00 NR -17.90 125.10

Source Information

Agency Information
USA
TOKYO
CMA
HKO
NEWDELHI
REUNION
BOM IDCKMSTM0S.csv:Line=876:unnamed
NADI
WELLINGTON
DS824
TD9636 cons_worldwide_trop_cyclone_18710101-19891231-006:Line=2049
TD9635
NEUMANN
MLC

All available IBTrACS Data

SEASON BASIN SUBBASIN ISO_TIME_________ NATURE LAT LON WMO PRES WMO AGENCY DIST2LAND LANDFALL IFLAG USA SSHS BOM LAT BOM LON BOM PRES BOM PRES_METHOD TD9636 LAT TD9636 LON TD9636 STAGE STORM SPEED STORM DIR
Year degrees north degrees east mb km km 1 degrees north degrees east mb degrees north degrees east kts degrees
1935 SI WA 1935-03-24 23:00:00 NR -13.70 123.40 218 218 __________O___ -1 -13.70 123.40 7 2 0
1935 SI WA 1935-03-25 00:00:00 NR -13.72 123.38 218 213 __________P___ -1 -13.72 123.38 7 2 219
1935 SI WA 03:00:00 NR -13.79 123.32 223 223 __________P___ -1 -13.79 123.32 7 2 219
1935 SI WA 06:00:00 NR -13.85 123.27 217 217 __________P___ -1 -13.85 123.27 7 1 225
1935 SI WA 09:00:00 NR -13.89 123.22 225 225 __________P___ -1 -13.89 123.22 7 1 236
1935 SI WA 11:00:00 NR -13.90 123.20 225 225 __________O___ -1 -13.90 123.20 7 1 253
1935 SI WA 12:00:00 NR -13.90 123.19 225 225 __________P___ -1 -13.90 123.19 7 1 281
1935 SI WA 15:00:00 NR -13.89 123.16 225 225 __________P___ -1 -13.89 123.16 7 1 276
1935 SI WA 18:00:00 NR -13.89 123.12 233 233 __________P___ -1 -13.89 123.12 7 1 246
1935 SI WA 21:00:00 NR -13.93 123.06 233 233 __________P___ -1 -13.93 123.06 7 2 228
1935 SI WA 23:00:00 NR -14.00 123.00 233 233 __________O___ -1 -14.00 123.00 7 3 222
1935 SI WA 1935-03-26 00:00:00 NR -14.05 122.95 225 218 __________P___ -1 -14.05 122.95 7 5 128
1935 SI WA 01:00:00 NR -14.09 123.12 bom 218 202 ______O___P___ -1 -14.00 124.00 -14.11 122.90 7 5 124
1935 SI WA 03:00:00 NR -14.19 123.17 202 194 ______P___P___ -1 -14.05 123.93 -14.26 122.79 7 3 183
1935 SI WA 06:00:00 NR -14.36 123.12 193 186 ______P___P___ -1 -14.14 123.81 -14.52 122.60 7 4 198
1935 SI WA 09:00:00 NR -14.52 123.05 186 186 ______P___P___ -1 -14.24 123.69 -14.80 122.41 7 4 209
1935 SI WA 11:00:00 NR -14.66 122.95 180 180 ______P___O___ -1 -14.31 123.60 -15.00 122.30 7 5 217
1935 SI WA 12:00:00 NR -14.72 122.90 188 174 ______P___P___ -1 -14.35 123.56 -15.09 122.24 7 5 216
1935 SI WA 15:00:00 NR -14.93 122.75 180 158 ______P___P___ -1 -14.49 123.42 -15.37 122.08 7 5 214
1935 SI WA 18:00:00 NR -15.15 122.60 149 130 ______P___P___ -1 -14.66 123.26 -15.65 121.95 7 5 209
1935 SI WA 21:00:00 NR -15.39 122.48 130 119 ______P___P___ -1 -14.86 123.08 -15.93 121.89 7 5 203
1935 SI WA 23:00:00 NR -15.56 122.42 114 114 ______P___O___ -1 -15.02 122.94 -16.10 121.90 7 5 198
1935 SI WA 1935-03-27 00:00:00 NR -15.65 122.40 114 104 ______P___P___ -1 -15.11 122.87 -16.19 121.93 7 6 190
1935 SI WA 01:00:00 NR -15.74 122.38 bom 104 85 ______O___P___ -1 -15.20 122.80 -16.28 121.96 7 6 188
1935 SI WA 03:00:00 NR -15.93 122.36 85 61 ______P___P___ -1 -15.40 122.65 -16.45 122.07 7 6 183
1935 SI WA 06:00:00 NR -16.22 122.37 61 46 ______P___P___ -1 -15.75 122.46 -16.69 122.28 7 6 173
1935 SI WA 08:00:00 NR -16.41 122.42 bom 46 30 ______O___P___ -1 -16.00 122.40 -16.83 122.44 7 6 164
1935 SI WA 09:00:00 NR -16.52 122.46 30 10 ______P___P___ -1 -16.14 122.40 -16.89 122.53 7 7 154
1935 SI WA 11:00:00 NR -16.72 122.58 10 10 ______P___O___ -1 -16.44 122.45 -17.00 122.70 7 7 152
1935 SI WA 12:00:00 NR -16.82 122.64 11 0 ______P___P___ -1 -16.59 122.50 -17.05 122.77 7 7 143
1935 SI WA 15:00:00 NR -17.07 122.85 957 bom 0 0 ______O___P___ -1 -17.00 122.70 957 4 -17.15 123.00 7 6 135
1935 SI WA 18:00:00 NR -17.26 123.09 0 0 ______P___P___ -1 -17.30 122.95 -17.21 123.23 7 6 124
1935 SI WA 21:00:00 NR -17.38 123.34 0 0 ______P___P___ -1 -17.50 123.22 -17.27 123.46 7 5 113
1935 SI WA 23:00:00 NR -17.43 123.52 0 0 ______P___O___ -1 -17.61 123.41 -17.30 123.60 7 5 101
1935 SI WA 1935-03-28 00:00:00 NR -17.43 123.61 0 0 ______P___P___ -1 -17.65 123.50 -17.32 123.66 7 5 86
1935 SI WA 01:00:00 NR -17.42 123.70 bom 0 0 ______O___P___ -1 -17.70 123.60 -17.35 123.73 7 5 81
1935 SI WA 03:00:00 NR -17.40 123.84 0 0 __________P___ -1 -17.40 123.84 7 4 100
1935 SI WA 06:00:00 NR -17.47 124.01 0 0 __________P___ -1 -17.47 124.01 7 4 115
1935 SI WA 09:00:00 NR -17.55 124.18 0 0 __________P___ -1 -17.55 124.18 7 4 115
1935 SI WA 11:00:00 NR -17.60 124.30 0 0 __________O___ -1 -17.60 124.30 7 4 114
1935 SI WA 12:00:00 NR -17.63 124.36 0 0 __________P___ -1 -17.63 124.36 7 4 113
1935 SI WA 15:00:00 NR -17.70 124.55 0 0 __________P___ -1 -17.70 124.55 7 4 112
1935 SI WA 18:00:00 NR -17.78 124.75 0 0 __________P___ -1 -17.78 124.75 7 4 111
1935 SI WA 21:00:00 NR -17.85 124.96 0 0 __________P___ -1 -17.85 124.96 7 4 111
1935 SI WA 23:00:00 NR -17.90 125.10 0 __________O___ -1 -17.90 125.10 7 4 110